Terminal Aerodrome Forecast
Issued by NWS Albany, NY

Home | Current Version | Previous Version | Text Only | Print | Product List | Glossary On
Versions: 1 2 3 4 5 6 7 8 9 10 11 12 13 14 15 16 17 18 19 20 21 22
000
FTUS41 KALY 280957 AAC
TAFPOU
TAF AMD
KPOU 280957Z 2810/2906 VRB03KT 6SM BR SCT080 BKN250
      TEMPO 2810/2812 3SM BR
     FM281200 VRB03KT P6SM FEW020 SCT250
     FM281600 23006KT P6SM SCT070
     FM282300 VRB03KT P6SM SCT250=

USA.gov is the U.S. government's official web portal to all federal, state and local government web resources and services.